METAR SBMG

2018092318 - METAR SBMG 231800Z 02004KT 340V110 CAVOK 34/17 Q1011=

Escala PR-FEA

ESCALA - SIMULADOR GA-18

Escala PR-FGM
Powered by ©Kanestech